Time;durP1;ratioP1;P1;durP2;ratioP2;P2;SDS_P1;SDS_P2;PMS_P1;PMS_P2;Temp;Humidity;BMP_temperature;BMP_pressure;BME280_temperature;BME280_humidity;BME280_pressure;Samples;Min_cycle;Max_cycle;Signal;HPM_P1;HPM_P2
2023/03/14 00:00:05;;;;;;;29.35;15.27;;;;;;;;;;10113454;28;20094;-68
2023/03/14 00:05:02;;;;;;;18.67;12.80;;;;;;;;;;10099147;28;20091;-68
2023/03/14 00:09:55;;;;;;;17.65;12.77;;;;;;;;;;10103673;28;20052;-68
2023/03/14 00:14:50;;;;;;;18.45;12.90;;;;;;;;;;10094264;28;20140;-67
2023/03/14 00:19:44;;;;;;;18.17;13.90;;;;;;;;;;10102229;28;20045;-68
2023/03/14 00:24:37;;;;;;;18.17;13.48;;;;;;;;;;10112085;28;20405;-68
2023/03/14 00:29:31;;;;;;;19.10;13.20;;;;;;;;;;10108170;28;20053;-67
2023/03/14 00:34:29;;;;;;;16.13;13.07;;;;;;;;;;10090787;28;20049;-68
2023/03/14 00:39:21;;;;;;;16.88;14.25;;;;;;;;;;10090361;28;20061;-67
2023/03/14 00:44:15;;;;;;;20.67;15.00;;;;;;;;;;10103297;28;20048;-67
2023/03/14 00:49:08;;;;;;;19.55;14.55;;;;;;;;;;10094336;28;20420;-67
2023/03/14 00:54:01;;;;;;;19.33;15.13;;;;;;;;;;10091148;28;20048;-67
2023/03/14 00:58:55;;;;;;;18.77;15.77;;;;;;;;;;10098218;28;20036;-67
2023/03/14 01:03:50;;;;;;;17.85;14.65;;;;;;;;;;10091243;28;20183;-67
2023/03/14 01:08:43;;;;;;;16.92;15.07;;;;;;;;;;10109159;28;20041;-68
2023/03/14 01:13:37;;;;;;;21.27;14.73;;;;;;;;;;10107651;28;20163;-68
2023/03/14 01:18:31;;;;;;;23.92;17.73;;;;;;;;;;10110583;28;20049;-68
2023/03/14 01:23:24;;;;;;;23.15;16.85;;;;;;;;;;10093577;28;20114;-67
2023/03/14 01:28:17;;;;;;;25.25;18.63;;;;;;;;;;10105860;28;20077;-67
2023/03/14 01:33:12;;;;;;;26.52;20.67;;;;;;;;;;10100411;28;20053;-67
2023/03/14 01:38:08;;;;;;;29.45;21.67;;;;;;;;;;10107012;28;20107;-67
2023/03/14 01:43:14;;;;;;;47.28;22.65;;;;;;;;;;10107711;28;20077;-67
2023/03/14 01:48:08;;;;;;;22.98;19.38;;;;;;;;;;10102359;28;20041;-68
2023/03/14 01:53:01;;;;;;;34.53;21.70;;;;;;;;;;10106277;28;20055;-67
2023/03/14 01:57:59;;;;;;;30.40;22.13;;;;;;;;;;10107787;28;20048;-67
2023/03/14 02:02:57;;;;;;;30.50;20.83;;;;;;;;;;10096356;28;20064;-67
2023/03/14 02:07:55;;;;;;;28.42;21.83;;;;;;;;;;10077039;28;20041;-68
2023/03/14 02:12:55;;;;;;;29.58;21.50;;;;;;;;;;10103885;28;20515;-68
2023/03/14 02:18:08;;;;;;;27.98;18.73;;;;;;;;;;10097526;28;20075;-67
2023/03/14 02:23:05;;;;;;;27.45;18.83;;;;;;;;;;10107001;28;20040;-67
2023/03/14 02:27:59;;;;;;;27.02;17.27;;;;;;;;;;10107262;28;20053;-67
2023/03/14 02:32:54;;;;;;;23.35;18.48;;;;;;;;;;10096092;28;20458;-67
2023/03/14 02:38:09;;;;;;;25.23;17.55;;;;;;;;;;10076791;28;20095;-68
2023/03/14 02:43:06;;;;;;;30.27;17.73;;;;;;;;;;10099333;28;20044;-67
2023/03/14 02:48:05;;;;;;;32.67;21.50;;;;;;;;;;10091954;28;20515;-67
2023/03/14 02:53:01;;;;;;;34.75;24.90;;;;;;;;;;10092848;28;20076;-68
2023/03/14 02:57:54;;;;;;;39.08;25.73;;;;;;;;;;10106156;28;20139;-67
2023/03/14 03:02:48;;;;;;;39.97;25.17;;;;;;;;;;10091880;28;20056;-68
2023/03/14 03:07:42;;;;;;;28.77;19.42;;;;;;;;;;10106604;28;20119;-67
2023/03/14 03:12:35;;;;;;;26.98;19.33;;;;;;;;;;10106252;28;20041;-67
2023/03/14 03:17:30;;;;;;;32.88;21.25;;;;;;;;;;10094169;28;20056;-67
2023/03/14 03:22:24;;;;;;;37.65;21.92;;;;;;;;;;10101828;28;20419;-67
2023/03/14 03:27:17;;;;;;;40.88;25.65;;;;;;;;;;10095130;28;20053;-67
2023/03/14 03:32:10;;;;;;;37.45;27.15;;;;;;;;;;10102893;28;20053;-68
2023/03/14 03:37:03;;;;;;;45.40;27.88;;;;;;;;;;10104374;28;20060;-68
2023/03/14 03:42:03;;;;;;;49.95;29.85;;;;;;;;;;10104364;28;20070;-68
2023/03/14 03:46:57;;;;;;;39.78;28.13;;;;;;;;;;10104870;28;20123;-67
2023/03/14 03:51:51;;;;;;;33.13;24.80;;;;;;;;;;10103515;28;20049;-68
2023/03/14 03:56:45;;;;;;;33.35;25.48;;;;;;;;;;10096683;28;20045;-67
2023/03/14 04:01:38;;;;;;;39.92;24.13;;;;;;;;;;10098249;28;20061;-68
2023/03/14 04:06:31;;;;;;;46.95;28.95;;;;;;;;;;10105193;28;20403;-67
2023/03/14 04:11:25;;;;;;;48.72;32.13;;;;;;;;;;10098040;28;20048;-67
2023/03/14 04:16:42;;;;;;;69.68;39.70;;;;;;;;;;10093089;28;20116;-67
2023/03/14 04:21:44;;;;;;;98.30;47.33;;;;;;;;;;10099827;28;20052;-68
2023/03/14 04:26:37;;;;;;;89.70;46.45;;;;;;;;;;10104586;28;20041;-67
2023/03/14 04:31:32;;;;;;;105.78;53.38;;;;;;;;;;10103562;28;20434;-67
2023/03/14 04:36:25;;;;;;;99.72;49.35;;;;;;;;;;10096897;28;20052;-67
2023/03/14 04:41:20;;;;;;;106.35;53.60;;;;;;;;;;10092457;28;20064;-67
2023/03/14 04:46:14;;;;;;;109.88;52.63;;;;;;;;;;10096995;28;20114;-67
2023/03/14 04:51:08;;;;;;;104.22;50.97;;;;;;;;;;10109374;28;20053;-67
2023/03/14 04:56:01;;;;;;;95.00;52.22;;;;;;;;;;10112092;28;20132;-68
2023/03/14 05:01:21;;;;;;;98.40;51.63;;;;;;;;;;10100040;28;20100;-67
2023/03/14 05:06:35;;;;;;;91.30;47.72;;;;;;;;;;10093154;28;20465;-67
2023/03/14 05:11:50;;;;;;;43.15;22.55;;;;;;;;;;10095971;28;20195;-69
2023/03/14 05:17:02;;;;;;;54.55;29.73;;;;;;;;;;10102350;28;20060;-70
2023/03/14 05:22:19;;;;;;;51.28;26.13;;;;;;;;;;10091781;28;20075;-70
2023/03/14 05:46:20;;;;;;;7.30;3.55;;;;;;;;;;10223015;27;20468;-71
2023/03/14 05:51:18;;;;;;;;;;;;;;;;;;10206406;28;20495;-71
2023/03/14 05:56:27;;;;;;;38.35;21.88;;;;;;;;;;10202751;28;19927;-73
2023/03/14 06:01:27;;;;;;;70.75;39.33;;;;;;;;;;10201199;28;20069;-71
2023/03/14 06:06:31;;;;;;;74.18;41.45;;;;;;;;;;10194795;28;20044;-72
2023/03/14 06:11:26;;;;;;;59.58;38.75;;;;;;;;;;10205549;28;20135;-72
2023/03/14 06:16:20;;;;;;;53.83;35.60;;;;;;;;;;10212157;28;20040;-72
2023/03/14 06:21:14;;;;;;;51.70;33.10;;;;;;;;;;10207759;28;20063;-72
2023/03/14 06:26:11;;;;;;;51.42;34.28;;;;;;;;;;10215549;28;20055;-72
2023/03/14 06:31:06;;;;;;;49.42;34.80;;;;;;;;;;10209174;28;20048;-69
2023/03/14 06:36:09;;;;;;;46.35;33.15;;;;;;;;;;10198968;28;20077;-68
2023/03/14 06:41:08;;;;;;;43.50;33.90;;;;;;;;;;10202983;28;20093;-68
2023/03/14 06:46:07;;;;;;;41.00;32.20;;;;;;;;;;10170891;28;20407;-68
2023/03/14 06:51:03;;;;;;;36.05;26.80;;;;;;;;;;10173906;28;20134;-68
2023/03/14 06:55:57;;;;;;;32.67;25.55;;;;;;;;;;10176051;28;20048;-68
2023/03/14 07:00:54;;;;;;;27.73;23.52;;;;;;;;;;10171846;28;20044;-71
2023/03/14 07:05:51;;;;;;;25.83;23.05;;;;;;;;;;10172338;28;20059;-72
2023/03/14 07:10:44;;;;;;;29.48;26.25;;;;;;;;;;10189114;28;20052;-72
2023/03/14 07:15:38;;;;;;;30.70;26.42;;;;;;;;;;10187953;28;20080;-72
2023/03/14 07:20:34;;;;;;;29.42;26.30;;;;;;;;;;10188915;28;20147;-69
2023/03/14 07:25:30;;;;;;;30.33;26.13;;;;;;;;;;10183735;28;20048;-71
2023/03/14 07:30:23;;;;;;;27.23;24.27;;;;;;;;;;10187207;28;20048;-71
2023/03/14 07:35:18;;;;;;;34.70;27.23;;;;;;;;;;10185917;28;20047;-71
2023/03/14 07:40:14;;;;;;;30.70;24.67;;;;;;;;;;10167754;28;20050;-71
2023/03/14 07:45:09;;;;;;;29.85;23.52;;;;;;;;;;10183547;28;20044;-71
2023/03/14 07:50:06;;;;;;;26.80;23.75;;;;;;;;;;10185769;28;20093;-70
2023/03/14 07:55:00;;;;;;;24.95;21.38;;;;;;;;;;10187627;28;20048;-71
2023/03/14 07:59:53;;;;;;;23.60;21.15;;;;;;;;;;10175602;28;20047;-71
2023/03/14 08:04:46;;;;;;;24.25;21.73;;;;;;;;;;10188085;28;20074;-71
2023/03/14 08:09:39;;;;;;;24.50;21.85;;;;;;;;;;10185323;28;20083;-71
2023/03/14 08:14:33;;;;;;;25.92;20.27;;;;;;;;;;10187943;28;20051;-71
2023/03/14 08:19:27;;;;;;;22.13;19.65;;;;;;;;;;10187636;28;20048;-71
2023/03/14 08:24:20;;;;;;;22.98;20.20;;;;;;;;;;10187248;28;20055;-71
2023/03/14 08:29:14;;;;;;;21.90;19.70;;;;;;;;;;10187804;28;20048;-71
2023/03/14 08:34:07;;;;;;;25.63;20.50;;;;;;;;;;10181348;28;20055;-71
2023/03/14 08:39:01;;;;;;;22.25;19.80;;;;;;;;;;10187160;28;20500;-72
2023/03/14 08:43:54;;;;;;;26.20;18.63;;;;;;;;;;10187247;28;20135;-69
2023/03/14 08:48:48;;;;;;;20.17;18.05;;;;;;;;;;10186131;28;20063;-69
2023/03/14 08:53:43;;;;;;;20.42;17.75;;;;;;;;;;10186676;28;20071;-69
2023/03/14 08:58:38;;;;;;;19.63;16.13;;;;;;;;;;10191725;28;20044;-69
2023/03/14 09:03:31;;;;;;;20.65;16.48;;;;;;;;;;10185252;28;20048;-70
2023/03/14 09:08:25;;;;;;;18.70;15.90;;;;;;;;;;10184727;28;20143;-70
2023/03/14 09:13:18;;;;;;;16.67;15.07;;;;;;;;;;10185199;28;20040;-70
2023/03/14 09:18:11;;;;;;;19.13;17.10;;;;;;;;;;10185738;28;20040;-70
2023/03/14 09:23:05;;;;;;;17.48;15.55;;;;;;;;;;10184495;28;20052;-70
2023/03/14 09:27:59;;;;;;;15.15;13.70;;;;;;;;;;10181123;28;20055;-77
2023/03/14 09:32:53;;;;;;;16.75;14.45;;;;;;;;;;10175189;28;20131;-71
2023/03/14 09:37:46;;;;;;;15.15;13.45;;;;;;;;;;10185470;28;20056;-72
2023/03/14 09:42:40;;;;;;;18.20;16.33;;;;;;;;;;10181697;28;20116;-71
2023/03/14 09:47:34;;;;;;;18.58;16.75;;;;;;;;;;10181333;28;20509;-70
2023/03/14 09:52:37;;;;;;;16.48;14.77;;;;;;;;;;10179548;28;20044;-70
2023/03/14 09:57:51;;;;;;;21.30;19.23;;;;;;;;;;10179795;28;20039;-70
2023/03/14 10:03:11;;;;;;;27.08;24.15;;;;;;;;;;10177075;28;20040;-70
2023/03/14 10:08:05;;;;;;;20.77;18.65;;;;;;;;;;10181287;28;20119;-70
2023/03/14 10:13:01;;;;;;;17.33;15.65;;;;;;;;;;10179814;28;20503;-70
2023/03/14 10:17:55;;;;;;;19.98;15.20;;;;;;;;;;10179189;28;20098;-69
2023/03/14 10:22:51;;;;;;;13.25;11.98;;;;;;;;;;10187169;28;20073;-70
2023/03/14 10:27:46;;;;;;;15.05;13.52;;;;;;;;;;10183268;28;20042;-71
2023/03/14 10:32:47;;;;;;;14.55;12.50;;;;;;;;;;10178895;28;20052;-71
2023/03/14 10:37:58;;;;;;;15.15;13.63;;;;;;;;;;10179804;28;20040;-71
2023/03/14 10:42:55;;;;;;;19.70;14.65;;;;;;;;;;10175260;28;20048;-71
2023/03/14 10:47:50;;;;;;;11.55;10.27;;;;;;;;;;10184445;28;20093;-71
2023/03/14 10:52:51;;;;;;;12.05;10.85;;;;;;;;;;10184186;28;20048;-71
2023/03/14 10:57:59;;;;;;;15.02;11.73;;;;;;;;;;10190320;28;20128;-71
2023/03/14 11:03:12;;;;;;;13.98;10.35;;;;;;;;;;10182197;28;20079;-71
2023/03/14 11:08:14;;;;;;;19.00;13.52;;;;;;;;;;10179376;28;20052;-71
2023/03/14 11:13:25;;;;;;;16.05;11.80;;;;;;;;;;10191150;28;20094;-71
2023/03/14 11:18:56;;;;;;;13.98;11.48;;;;;;;;;;10173509;28;20048;-71
2023/03/14 11:23:57;;;;;;;11.43;8.90;;;;;;;;;;10182914;28;20044;-72
2023/03/14 11:28:51;;;;;;;9.73;8.02;;;;;;;;;;10189528;28;20047;-71
2023/03/14 11:33:58;;;;;;;11.70;9.48;;;;;;;;;;10187780;28;20110;-71
2023/03/14 11:38:55;;;;;;;14.48;10.02;;;;;;;;;;10187581;28;20067;-72
2023/03/14 11:43:57;;;;;;;11.27;9.38;;;;;;;;;;10185825;28;20101;-71
2023/03/14 11:49:25;;;;;;;7.60;6.43;;;;;;;;;;10185075;28;20457;-71
2023/03/14 11:54:23;;;;;;;6.60;4.72;;;;;;;;;;10179170;28;20044;-71
2023/03/14 11:59:21;;;;;;;11.75;6.55;;;;;;;;;;10182914;28;20048;-71
2023/03/14 12:04:20;;;;;;;7.68;6.63;;;;;;;;;;10185827;28;20696;-70
2023/03/14 12:09:14;;;;;;;9.00;7.30;;;;;;;;;;10184553;28;20051;-70
2023/03/14 12:14:24;;;;;;;13.00;6.32;;;;;;;;;;10185741;28;20097;-71
2023/03/14 12:19:22;;;;;;;7.50;6.30;;;;;;;;;;10183190;28;20105;-71
2023/03/14 12:24:23;;;;;;;9.82;7.57;;;;;;;;;;10183059;28;20036;-71
2023/03/14 12:29:23;;;;;;;10.98;7.25;;;;;;;;;;10186558;28;20464;-71
2023/03/14 12:34:17;;;;;;;10.85;8.50;;;;;;;;;;10171853;28;20101;-71
2023/03/14 12:39:37;;;;;;;12.02;8.23;;;;;;;;;;10187202;28;20052;-71
2023/03/14 12:44:29;;;;;;;;;;;;;;;;;;10155383;28;20098;-70
2023/03/14 12:49:32;;;;;;;10.77;7.03;;;;;;;;;;10186956;28;20280;-70
2023/03/14 12:54:42;;;;;;;11.48;8.35;;;;;;;;;;10175428;28;20051;-70
2023/03/14 12:59:36;;;;;;;15.48;9.70;;;;;;;;;;10164514;28;20051;-70
2023/03/14 13:05:10;;;;;;;12.50;8.95;;;;;;;;;;10184120;28;20052;-70
2023/03/14 13:10:09;;;;;;;9.57;8.43;;;;;;;;;;10156816;28;20048;-70
2023/03/14 13:15:31;;;;;;;12.57;8.82;;;;;;;;;;10186828;28;20144;-70
2023/03/14 13:20:38;;;;;;;13.82;7.60;;;;;;;;;;10184377;28;20060;-70
2023/03/14 13:25:35;;;;;;;12.45;8.52;;;;;;;;;;10172517;28;20044;-69
2023/03/14 13:30:59;;;;;;;11.75;9.27;;;;;;;;;;10164497;28;20461;-70
2023/03/14 13:36:02;;;;;;;21.20;9.73;;;;;;;;;;10185281;28;20055;-68
2023/03/14 13:41:00;;;;;;;13.07;8.90;;;;;;;;;;10185415;28;20128;-69
2023/03/14 13:46:04;;;;;;;18.17;9.03;;;;;;;;;;10180575;28;20139;-70
2023/03/14 13:51:05;;;;;;;13.38;8.75;;;;;;;;;;10174559;28;20496;-69
2023/03/14 13:56:03;;;;;;;9.48;8.35;;;;;;;;;;10171974;28;20097;-70
2023/03/14 14:01:25;;;;;;;8.85;7.85;;;;;;;;;;10189681;28;20048;-69
2023/03/14 14:06:23;;;;;;;9.50;8.07;;;;;;;;;;10189257;28;20044;-69
2023/03/14 14:11:28;;;;;;;10.65;8.00;;;;;;;;;;10192472;28;20060;-69
2023/03/14 14:16:36;;;;;;;10.68;8.43;;;;;;;;;;10189116;28;20056;-68
2023/03/14 14:21:31;;;;;;;9.40;8.43;;;;;;;;;;10190631;28;20163;-69
2023/03/14 14:26:25;;;;;;;16.40;9.98;;;;;;;;;;10190495;28;20507;-69
2023/03/14 14:31:24;;;;;;;14.48;8.90;;;;;;;;;;10189010;28;20127;-69
2023/03/14 14:36:42;;;;;;;9.25;8.32;;;;;;;;;;10191759;28;20515;-69
2023/03/14 14:41:40;;;;;;;12.65;9.57;;;;;;;;;;10186633;28;20601;-69
2023/03/14 14:46:34;;;;;;;11.52;9.15;;;;;;;;;;10184388;28;20637;-69
2023/03/14 14:51:34;;;;;;;9.95;8.43;;;;;;;;;;10184805;28;20139;-69
2023/03/14 14:56:27;;;;;;;;;;;;;;;;;;10189556;28;20083;-68
2023/03/14 15:01:24;;;;;;;12.57;8.68;;;;;;;;;;10189403;28;19966;-68
2023/03/14 15:06:18;;;;;;;11.80;9.18;;;;;;;;;;10190146;28;20101;-69
2023/03/14 15:11:16;;;;;;;15.65;10.02;;;;;;;;;;10184571;28;20511;-69
2023/03/14 15:16:10;;;;;;;12.70;9.90;;;;;;;;;;10190486;28;20087;-68
2023/03/14 15:21:04;;;;;;;10.15;8.55;;;;;;;;;;10189753;28;20052;-66
2023/03/14 15:25:58;;;;;;;9.30;8.32;;;;;;;;;;10190079;28;20059;-70
2023/03/14 15:30:54;;;;;;;13.50;10.32;;;;;;;;;;10188250;28;20059;-68
2023/03/14 15:35:48;;;;;;;10.88;9.35;;;;;;;;;;10189930;28;20048;-67
2023/03/14 15:40:41;;;;;;;11.60;9.57;;;;;;;;;;10189193;28;20077;-66
2023/03/14 15:45:35;;;;;;;13.85;9.57;;;;;;;;;;10188861;28;20063;-65
2023/03/14 15:50:29;;;;;;;12.25;9.75;;;;;;;;;;10189590;28;20072;-67
2023/03/14 15:55:23;;;;;;;12.52;10.05;;;;;;;;;;10188970;28;20105;-67
2023/03/14 16:00:24;;;;;;;12.05;9.80;;;;;;;;;;10186125;28;20043;-69
2023/03/14 16:05:19;;;;;;;9.45;8.45;;;;;;;;;;10188250;28;20051;-69
2023/03/14 16:10:13;;;;;;;10.43;8.50;;;;;;;;;;10181199;28;20049;-69
2023/03/14 16:15:08;;;;;;;12.85;9.40;;;;;;;;;;10187410;28;20124;-69
2023/03/14 16:20:00;;;;;;;9.65;8.68;;;;;;;;;;10192082;28;20044;-67
2023/03/14 16:24:54;;;;;;;9.93;8.90;;;;;;;;;;10186705;28;20056;-67
2023/03/14 16:29:47;;;;;;;10.55;8.85;;;;;;;;;;10171802;28;20461;-65
2023/03/14 16:34:41;;;;;;;13.73;9.88;;;;;;;;;;10185702;28;20048;-66
2023/03/14 16:39:35;;;;;;;14.25;9.80;;;;;;;;;;10188501;28;20059;-65
2023/03/14 16:44:49;;;;;;;12.57;9.35;;;;;;;;;;10185197;28;20052;-66
2023/03/14 16:49:42;;;;;;;13.18;9.45;;;;;;;;;;10180436;28;20040;-64
2023/03/14 16:54:36;;;;;;;13.02;9.18;;;;;;;;;;10186218;28;20040;-67
2023/03/14 16:59:31;;;;;;;12.98;9.88;;;;;;;;;;10186133;28;20052;-68
2023/03/14 17:04:27;;;;;;;15.82;11.38;;;;;;;;;;10183448;28;20082;-67
2023/03/14 17:09:21;;;;;;;14.82;10.15;;;;;;;;;;10185106;28;20046;-67
2023/03/14 17:14:14;;;;;;;15.25;10.75;;;;;;;;;;10184976;28;20048;-67
2023/03/14 17:19:08;;;;;;;13.65;10.93;;;;;;;;;;10186276;28;20048;-67
2023/03/14 17:24:01;;;;;;;15.30;12.45;;;;;;;;;;10182502;28;20070;-67
2023/03/14 17:28:55;;;;;;;19.48;15.40;;;;;;;;;;10182565;28;20105;-67
2023/03/14 17:33:50;;;;;;;19.90;15.50;;;;;;;;;;10184398;28;20113;-66
2023/03/14 17:38:44;;;;;;;19.52;14.00;;;;;;;;;;10187261;28;20135;-68
2023/03/14 17:43:38;;;;;;;15.05;12.35;;;;;;;;;;10185523;28;20090;-68
2023/03/14 17:48:32;;;;;;;17.95;11.13;;;;;;;;;;10184525;28;20122;-68
2023/03/14 17:53:26;;;;;;;12.23;10.15;;;;;;;;;;10184289;28;20494;-68
2023/03/14 17:58:19;;;;;;;11.73;9.95;;;;;;;;;;10185665;28;20087;-68
2023/03/14 18:03:13;;;;;;;11.73;9.88;;;;;;;;;;10183317;28;20055;-68
2023/03/14 18:08:06;;;;;;;12.77;11.15;;;;;;;;;;10184185;28;20415;-69
2023/03/14 18:12:59;;;;;;;13.82;10.43;;;;;;;;;;10185525;28;20052;-70
2023/03/14 18:17:51;;;;;;;13.93;10.63;;;;;;;;;;10184723;28;20518;-70
2023/03/14 18:22:45;;;;;;;13.90;10.70;;;;;;;;;;10184665;28;20048;-70
2023/03/14 18:27:39;;;;;;;14.13;12.55;;;;;;;;;;10184841;28;20389;-70
2023/03/14 18:32:33;;;;;;;13.45;10.95;;;;;;;;;;10185279;28;20056;-70
2023/03/14 18:37:26;;;;;;;15.23;11.40;;;;;;;;;;10184739;28;20046;-69
2023/03/14 18:42:19;;;;;;;17.27;13.95;;;;;;;;;;10189411;28;20154;-69
2023/03/14 18:47:12;;;;;;;16.30;12.48;;;;;;;;;;10191453;28;20492;-68
2023/03/14 18:52:06;;;;;;;15.98;13.10;;;;;;;;;;10191925;28;20055;-69
2023/03/14 18:56:59;;;;;;;16.33;13.48;;;;;;;;;;10191282;28;20523;-69
2023/03/14 19:01:53;;;;;;;16.33;14.63;;;;;;;;;;10190957;28;20059;-69
2023/03/14 19:06:47;;;;;;;17.13;14.18;;;;;;;;;;10189760;28;20507;-69
2023/03/14 19:11:42;;;;;;;16.55;14.88;;;;;;;;;;10188354;28;20396;-69
2023/03/14 19:16:36;;;;;;;20.95;18.83;;;;;;;;;;10187677;28;20509;-68
2023/03/14 19:21:32;;;;;;;17.15;15.40;;;;;;;;;;10190124;28;20055;-69
2023/03/14 19:26:28;;;;;;;17.75;15.85;;;;;;;;;;10189508;28;20423;-69
2023/03/14 19:31:21;;;;;;;18.02;15.18;;;;;;;;;;10190024;28;20055;-68
2023/03/14 19:36:24;;;;;;;17.77;15.77;;;;;;;;;;10187680;28;20059;-68
2023/03/14 19:41:20;;;;;;;16.90;14.80;;;;;;;;;;10185071;28;20109;-67
2023/03/14 19:46:14;;;;;;;19.60;16.75;;;;;;;;;;10179675;28;20136;-68
2023/03/14 19:51:09;;;;;;;17.85;15.88;;;;;;;;;;10171079;28;20055;-68
2023/03/14 19:56:03;;;;;;;20.33;15.90;;;;;;;;;;10179910;28;20522;-70
2023/03/14 20:01:00;;;;;;;19.42;15.23;;;;;;;;;;10166266;28;20056;-69
2023/03/14 20:05:54;;;;;;;20.90;15.82;;;;;;;;;;10175031;28;20147;-68
2023/03/14 20:10:47;;;;;;;19.50;16.27;;;;;;;;;;10178772;28;20143;-69
2023/03/14 20:15:41;;;;;;;16.52;14.80;;;;;;;;;;10177754;28;20048;-76
2023/03/14 20:20:34;;;;;;;19.48;15.57;;;;;;;;;;10176263;28;20047;-74
2023/03/14 20:25:28;;;;;;;22.08;16.27;;;;;;;;;;10178667;28;20044;-73
2023/03/14 20:30:22;;;;;;;20.10;16.55;;;;;;;;;;10176698;28;20059;-70
2023/03/14 20:35:23;;;;;;;16.95;14.57;;;;;;;;;;10182781;28;20056;-71
2023/03/14 20:40:18;;;;;;;18.35;15.02;;;;;;;;;;10178127;28;20056;-69
2023/03/14 20:45:12;;;;;;;17.83;15.63;;;;;;;;;;10174033;28;20059;-70
2023/03/14 20:50:07;;;;;;;19.60;16.10;;;;;;;;;;10191202;28;20058;-74
2023/03/14 20:55:01;;;;;;;17.15;14.63;;;;;;;;;;10174074;28;20071;-70
2023/03/14 20:59:55;;;;;;;19.67;15.38;;;;;;;;;;10175651;28;20048;-71
2023/03/14 21:04:51;;;;;;;17.75;14.77;;;;;;;;;;10176422;28;20076;-70
2023/03/14 21:09:45;;;;;;;18.20;15.07;;;;;;;;;;10177578;28;20040;-72
2023/03/14 21:14:39;;;;;;;19.58;15.52;;;;;;;;;;10177593;28;20039;-70
2023/03/14 21:19:34;;;;;;;22.40;14.57;;;;;;;;;;10165519;28;20511;-70
2023/03/14 21:24:28;;;;;;;20.85;15.90;;;;;;;;;;10176031;28;20048;-71
2023/03/14 21:29:22;;;;;;;18.65;13.60;;;;;;;;;;10176458;28;20480;-71
2023/03/14 21:34:19;;;;;;;18.02;14.38;;;;;;;;;;10177284;28;20036;-72
2023/03/14 21:39:13;;;;;;;16.05;14.40;;;;;;;;;;10165986;28;20048;-70
2023/03/14 21:44:05;;;;;;;19.17;15.15;;;;;;;;;;10177621;28;20056;-69
2023/03/14 21:48:59;;;;;;;19.40;15.70;;;;;;;;;;10178898;28;20048;-70
2023/03/14 21:53:53;;;;;;;19.02;16.13;;;;;;;;;;10173487;28;20476;-70
2023/03/14 21:58:47;;;;;;;23.33;18.58;;;;;;;;;;10179395;28;20056;-69
2023/03/14 22:03:44;;;;;;;23.85;15.82;;;;;;;;;;10176508;28;20063;-69
2023/03/14 22:08:37;;;;;;;25.63;17.40;;;;;;;;;;10177894;28;20052;-70
2023/03/14 22:13:31;;;;;;;22.77;18.25;;;;;;;;;;10179800;28;20055;-70
2023/03/14 22:18:24;;;;;;;23.23;17.65;;;;;;;;;;10177138;28;20052;-70
2023/03/14 22:23:18;;;;;;;23.55;18.35;;;;;;;;;;10171234;28;20075;-70
2023/03/14 22:28:11;;;;;;;26.55;18.77;;;;;;;;;;10187736;28;20040;-70
2023/03/14 22:33:04;;;;;;;22.35;19.27;;;;;;;;;;10190293;28;20416;-71
2023/03/14 22:37:57;;;;;;;25.55;19.45;;;;;;;;;;10192349;28;20516;-70
2023/03/14 22:42:52;;;;;;;23.45;18.90;;;;;;;;;;10189229;28;20492;-70
2023/03/14 22:47:45;;;;;;;27.75;21.02;;;;;;;;;;10187284;28;20048;-71
2023/03/14 22:52:39;;;;;;;23.98;19.33;;;;;;;;;;10187838;28;20044;-70
2023/03/14 22:57:33;;;;;;;25.98;19.08;;;;;;;;;;10188746;28;20453;-71
2023/03/14 23:02:27;;;;;;;26.02;21.00;;;;;;;;;;10191290;28;20123;-70
2023/03/14 23:07:20;;;;;;;26.73;22.30;;;;;;;;;;10189271;28;20102;-70
2023/03/14 23:12:16;;;;;;;23.85;18.88;;;;;;;;;;10190533;28;20071;-70
2023/03/14 23:17:09;;;;;;;31.42;26.98;;;;;;;;;;10190650;28;20047;-70
2023/03/14 23:22:02;;;;;;;30.60;25.25;;;;;;;;;;10190484;28;20048;-70
2023/03/14 23:26:56;;;;;;;37.25;29.70;;;;;;;;;;10189849;28;20423;-70
2023/03/14 23:31:49;;;;;;;39.72;31.27;;;;;;;;;;10189816;28;20109;-70
2023/03/14 23:36:44;;;;;;;30.13;24.90;;;;;;;;;;10189411;28;20450;-70
2023/03/14 23:41:37;;;;;;;27.23;21.98;;;;;;;;;;10184023;28;20059;-70
2023/03/14 23:46:31;;;;;;;27.33;22.08;;;;;;;;;;10189438;28;20055;-70
2023/03/14 23:51:26;;;;;;;26.33;21.20;;;;;;;;;;10188998;28;20052;-71
2023/03/14 23:56:19;;;;;;;62.92;36.22;;;;;;;;;;10187572;28;20044;-70
